createdAt,value
2018-10-21T00:00:02.479Z,20.60
2018-10-21T00:02:35.412Z,22.70
2018-10-21T00:05:07.399Z,21.05
2018-10-21T00:07:37.770Z,19.32
2018-10-21T00:10:10.356Z,18.70
2018-10-21T00:12:40.799Z,18.60
2018-10-21T00:15:11.549Z,18.85
2018-10-21T00:17:42.551Z,17.90
2018-10-21T00:20:12.894Z,19.23
2018-10-21T00:22:43.299Z,20.68
2018-10-21T00:25:14.288Z,20.10
2018-10-21T00:27:44.898Z,19.95
2018-10-21T00:30:15.205Z,18.90
2018-10-21T00:32:49.807Z,18.50
2018-10-21T00:35:20.179Z,19.67
2018-10-21T00:37:50.711Z,19.87
2018-10-21T00:40:21.004Z,18.98
2018-10-21T00:42:51.443Z,20.32
2018-10-21T00:45:21.801Z,19.87
2018-10-21T00:47:52.113Z,21.73
2018-10-21T00:50:22.518Z,19.73
2018-10-21T00:52:52.943Z,18.82
2018-10-21T00:55:23.204Z,18.60
2018-10-21T00:57:53.614Z,19.30
2018-10-21T01:00:23.910Z,19.42
2018-10-21T01:02:54.624Z,16.97
2018-10-21T01:05:24.904Z,17.90
2018-10-21T01:07:55.400Z,18.50
2018-10-21T01:10:25.662Z,19.57
2018-10-21T01:12:55.971Z,17.90
2018-10-21T01:15:26.378Z,18.52
2018-10-21T01:17:56.675Z,18.87
2018-10-21T01:20:27.191Z,17.95
2018-10-21T01:22:57.566Z,19.20
2018-10-21T01:25:28.059Z,18.73
2018-10-21T01:27:58.443Z,19.75
2018-10-21T01:30:28.737Z,19.00
2018-10-21T01:32:59.075Z,19.20
2018-10-21T01:35:29.371Z,18.65
2018-10-21T01:37:59.731Z,18.20
2018-10-21T01:40:32.591Z,19.12
2018-10-21T01:43:03.371Z,19.30
2018-10-21T01:45:33.660Z,18.00
2018-10-21T01:48:06.020Z,18.67
2018-10-21T01:50:36.461Z,24.18
2018-10-21T01:53:07.935Z,25.62
2018-10-21T01:55:38.347Z,18.95
2018-10-21T01:58:08.911Z,16.93
2018-10-21T02:00:40.013Z,15.90
2018-10-21T02:03:10.409Z,16.07
2018-10-21T02:05:41.573Z,16.87
2018-10-21T02:08:11.869Z,16.80
2018-10-21T02:10:42.146Z,15.60
2018-10-21T02:13:12.441Z,16.17
2018-10-21T02:15:42.863Z,16.45
2018-10-21T02:18:13.144Z,16.85
2018-10-21T02:20:43.511Z,17.92
2018-10-21T02:23:13.834Z,15.90
2018-10-21T02:25:44.301Z,16.77
2018-10-21T02:28:14.579Z,16.45
2018-10-21T02:30:45.210Z,17.25
2018-10-21T02:33:15.541Z,16.73
2018-10-21T02:35:45.939Z,18.37
2018-10-21T02:38:16.242Z,20.00
2018-10-21T02:41:38.383Z,21.10
2018-10-21T02:44:09.831Z,17.10
2018-10-21T02:46:41.077Z,15.98
2018-10-21T02:49:12.298Z,15.98
2018-10-21T02:51:42.575Z,15.68
2018-10-21T02:54:12.884Z,15.65
2018-10-21T02:56:43.122Z,14.53
2018-10-21T02:59:13.435Z,15.78
2018-10-21T03:01:43.848Z,15.98
2018-10-21T03:04:14.167Z,15.28
2018-10-21T03:06:44.994Z,15.18
2018-10-21T03:09:15.447Z,14.95
2018-10-21T03:11:45.783Z,14.93
2018-10-21T03:14:16.075Z,14.95
2018-10-21T03:16:46.406Z,15.53
2018-10-21T03:19:16.690Z,16.00
2018-10-21T03:21:47.020Z,15.20
2018-10-21T03:24:17.472Z,16.48
2018-10-21T03:26:48.565Z,16.12
2018-10-21T03:29:18.885Z,15.00
2018-10-21T03:31:49.148Z,15.83
2018-10-21T03:34:19.477Z,16.23
2018-10-21T03:36:49.744Z,15.65
2018-10-21T03:39:20.059Z,15.00
2018-10-21T03:41:50.302Z,14.90
2018-10-21T03:44:20.598Z,14.45
2018-10-21T03:46:50.889Z,15.32
2018-10-21T03:49:22.061Z,16.02
2018-10-21T03:51:52.412Z,14.78
2018-10-21T03:54:22.716Z,16.05
2018-10-21T03:56:52.965Z,15.20
2018-10-21T03:59:23.248Z,16.12
2018-10-21T04:01:53.512Z,17.12
2018-10-21T04:04:23.856Z,16.25
2018-10-21T04:06:54.136Z,17.95
2018-10-21T04:09:24.409Z,16.17
2018-10-21T04:11:54.658Z,17.20
2018-10-21T04:14:24.938Z,15.70
2018-10-21T04:16:55.630Z,15.90
2018-10-21T04:19:25.919Z,16.87
2018-10-21T04:21:56.691Z,16.02
2018-10-21T04:24:26.952Z,15.03
2018-10-21T04:26:57.205Z,16.32
2018-10-21T04:29:28.226Z,15.72
2018-10-21T04:31:58.951Z,15.48
2018-10-21T04:34:29.462Z,16.65
2018-10-21T04:37:15.500Z,15.98
2018-10-21T04:40:07.295Z,18.23
2018-10-21T04:42:37.837Z,17.37
2018-10-21T04:45:08.814Z,18.55
2018-10-21T04:47:39.189Z,18.90
2018-10-21T04:50:10.717Z,15.93
2018-10-21T04:52:41.053Z,18.60
2018-10-21T04:55:16.582Z,16.65
2018-10-21T04:57:47.651Z,16.40
2018-10-21T05:00:19.679Z,16.23
2018-10-21T05:02:50.234Z,16.60
2018-10-21T05:05:20.603Z,17.48
2018-10-21T05:07:51.071Z,18.90
2018-10-21T05:10:29.187Z,18.87
2018-10-21T05:12:59.758Z,18.90
2018-10-21T05:15:32.216Z,19.37
2018-10-21T05:18:02.531Z,19.20
2018-10-21T05:20:32.943Z,18.55
2018-10-21T05:23:03.335Z,19.50
2018-10-21T05:25:34.080Z,19.20
2018-10-21T05:28:04.422Z,18.10
2018-10-21T05:30:34.990Z,19.75
2018-10-21T05:33:05.694Z,18.30
2018-10-21T05:35:36.113Z,18.40
2018-10-21T05:38:06.447Z,19.07
2018-10-21T05:40:36.950Z,19.00
2018-10-21T05:43:07.186Z,18.23
2018-10-21T05:45:37.461Z,18.52
2018-10-21T05:48:11.227Z,16.40
2018-10-21T05:50:41.547Z,15.70
2018-10-21T05:53:11.794Z,18.37
2018-10-21T05:55:42.162Z,19.60
2018-10-21T05:58:12.503Z,21.62
2018-10-21T06:00:43.152Z,37.70
2018-10-21T06:03:13.506Z,37.23
2018-10-21T06:05:45.780Z,22.95
2018-10-21T06:08:16.142Z,16.93
2018-10-21T06:10:46.439Z,18.10
2018-10-21T06:13:17.325Z,17.55
2018-10-21T06:15:47.766Z,16.62
2018-10-21T06:18:22.520Z,17.32
2018-10-21T06:20:54.850Z,17.62
2018-10-21T06:23:25.138Z,17.25
2018-10-21T06:25:55.652Z,18.70
2018-10-21T06:28:25.951Z,18.65
2018-10-21T06:30:56.267Z,20.17
2018-10-21T06:33:26.730Z,24.20
2018-10-21T06:35:57.023Z,29.57
2018-10-21T06:38:27.991Z,27.93
2018-10-21T06:40:59.038Z,26.45
2018-10-21T06:43:30.860Z,27.60
2018-10-21T06:46:01.296Z,27.90
2018-10-21T06:48:31.968Z,27.50
2018-10-21T06:51:02.353Z,24.23
2018-10-21T06:53:32.906Z,26.80
2018-10-21T06:56:03.242Z,25.93
2018-10-21T06:58:33.709Z,25.60
2018-10-21T07:01:04.039Z,27.93
2018-10-21T07:03:34.306Z,27.20
2018-10-21T07:06:23.091Z,31.70
2018-10-21T07:08:54.569Z,31.60
2018-10-21T07:11:24.917Z,28.30
2018-10-21T07:13:55.194Z,27.80
2018-10-21T07:16:26.352Z,28.67
2018-10-21T07:18:56.632Z,28.13
2018-10-21T07:21:27.396Z,26.90
2018-10-21T07:23:57.864Z,29.10
2018-10-21T07:26:28.607Z,31.30
2018-10-21T07:28:59.136Z,31.10
2018-10-21T07:31:29.964Z,30.80
2018-10-21T07:34:00.655Z,29.03
2018-10-21T07:36:31.084Z,29.23
2018-10-21T07:39:01.380Z,28.27
2018-10-21T07:41:31.963Z,29.43
2018-10-21T07:44:02.258Z,29.20
2018-10-21T07:46:32.714Z,30.63
2018-10-21T07:49:03.106Z,29.00
2018-10-21T07:51:34.147Z,29.97
2018-10-21T07:54:04.496Z,28.73
2018-10-21T07:56:35.168Z,29.43
2018-10-21T07:59:07.741Z,30.20
2018-10-21T08:01:38.101Z,29.90
2018-10-21T08:04:08.453Z,29.90
2018-10-21T08:06:55.882Z,27.20
2018-10-21T08:09:26.243Z,27.13
2018-10-21T08:11:56.675Z,25.80
2018-10-21T08:14:27.054Z,24.23
2018-10-21T08:16:57.350Z,25.67
2018-10-21T08:19:28.038Z,25.20
2018-10-21T08:21:58.383Z,24.17
2018-10-21T08:24:29.058Z,25.90
2018-10-21T08:26:59.381Z,22.80
2018-10-21T08:29:29.751Z,20.70
2018-10-21T08:32:00.108Z,21.20
2018-10-21T08:34:30.451Z,20.50
2018-10-21T08:37:00.904Z,20.37
2018-10-21T08:39:31.194Z,20.20
2018-10-21T08:42:01.470Z,19.60
2018-10-21T08:44:31.894Z,18.77
2018-10-21T08:47:02.166Z,17.93
2018-10-21T08:49:32.628Z,17.47
2018-10-21T08:52:02.937Z,19.10
2018-10-21T08:54:33.234Z,16.00
2018-10-21T08:57:04.497Z,14.60
2018-10-21T08:59:35.375Z,16.60
2018-10-21T09:02:05.750Z,16.73
2018-10-21T09:04:36.460Z,14.87
2018-10-21T09:07:06.894Z,14.87
2018-10-21T09:09:37.192Z,15.07
2018-10-21T09:12:07.489Z,15.80
2018-10-21T09:14:37.830Z,14.10
2018-10-21T09:17:08.137Z,17.33
2018-10-21T09:19:38.621Z,14.07
2018-10-21T09:22:10.409Z,13.53
2018-10-21T09:24:40.827Z,14.60
2018-10-21T09:27:11.119Z,14.03
2018-10-21T09:29:42.026Z,13.53
2018-10-21T09:32:12.486Z,12.70
2018-10-21T09:34:43.310Z,10.57
2018-10-21T09:37:13.669Z,9.37
2018-10-21T09:39:44.541Z,8.37
2018-10-21T09:42:14.871Z,7.90
2018-10-21T09:44:45.370Z,8.10
2018-10-21T09:47:15.646Z,7.50
2018-10-21T09:49:46.061Z,8.77
2018-10-21T09:52:16.388Z,9.20
2018-10-21T09:54:46.630Z,9.97
2018-10-21T09:57:16.924Z,8.27
2018-10-21T09:59:47.370Z,7.00
2018-10-21T10:02:22.664Z,6.67
2018-10-21T10:04:53.002Z,6.33
2018-10-21T10:07:23.862Z,5.63
2018-10-21T10:09:54.184Z,5.70
2018-10-21T10:12:24.463Z,5.70
2018-10-21T10:14:54.730Z,4.70
2018-10-21T10:17:25.011Z,5.43
2018-10-21T10:19:55.657Z,5.30
2018-10-21T10:22:25.932Z,5.67
2018-10-21T10:24:56.305Z,5.33
2018-10-21T10:27:26.598Z,6.10
2018-10-21T10:29:56.963Z,5.87
2018-10-21T10:32:27.898Z,5.70
2018-10-21T10:34:58.211Z,5.93
2018-10-21T10:37:28.744Z,5.47
2018-10-21T10:39:59.054Z,5.70
2018-10-21T10:42:29.467Z,5.70
2018-10-21T10:44:59.783Z,6.30
2018-10-21T10:47:31.079Z,5.90
2018-10-21T10:50:01.373Z,6.63
2018-10-21T10:52:31.821Z,5.43
2018-10-21T10:55:02.151Z,6.37
2018-10-21T10:57:32.419Z,5.70
2018-10-21T11:00:03.029Z,5.30
2018-10-21T11:02:33.342Z,5.10
2018-10-21T11:05:03.724Z,5.87
2018-10-21T11:07:34.023Z,5.43
2018-10-21T11:10:04.594Z,5.10
2018-10-21T11:12:35.026Z,5.17
2018-10-21T11:15:06.300Z,5.10
2018-10-21T11:17:37.002Z,5.67
2018-10-21T11:20:07.491Z,4.83
2018-10-21T11:22:37.973Z,5.40
2018-10-21T11:25:09.772Z,5.10
2018-10-21T11:27:40.290Z,4.60
2018-10-21T11:30:10.710Z,4.70
2018-10-21T11:32:40.993Z,4.20
2018-10-21T11:35:11.309Z,3.90
2018-10-21T11:37:42.133Z,4.30
2018-10-21T11:40:12.445Z,4.37
2018-10-21T11:42:42.959Z,4.53
2018-10-21T11:45:14.314Z,4.73
2018-10-21T11:47:44.782Z,4.50
2018-10-21T11:50:15.114Z,4.40
2018-10-21T11:52:45.775Z,4.60
2018-10-21T11:55:16.022Z,4.67
2018-10-21T11:57:46.295Z,4.80
2018-10-21T12:00:16.619Z,4.40
2018-10-21T12:02:46.897Z,5.00
2018-10-21T12:05:17.256Z,4.40
2018-10-21T12:07:47.543Z,4.47
2018-10-21T12:10:17.948Z,5.20
2018-10-21T12:12:48.212Z,4.63
2018-10-21T12:15:18.515Z,4.90
2018-10-21T12:17:48.921Z,4.90
2018-10-21T12:20:19.206Z,4.33
2018-10-21T12:22:49.521Z,4.43
2018-10-21T12:25:20.168Z,4.73
2018-10-21T12:27:50.386Z,4.20
2018-10-21T12:30:20.684Z,4.70
2018-10-21T12:32:51.015Z,4.70
2018-10-21T12:35:21.249Z,4.53
2018-10-21T12:37:51.668Z,4.33
2018-10-21T12:40:22.066Z,3.80
2018-10-21T12:42:52.725Z,4.40
2018-10-21T12:45:23.005Z,4.33
2018-10-21T12:47:53.315Z,4.77
2018-10-21T12:50:23.886Z,4.30
2018-10-21T12:52:54.338Z,4.60
2018-10-21T12:55:24.618Z,4.60
2018-10-21T12:57:55.393Z,5.17
2018-10-21T13:00:25.990Z,4.73
2018-10-21T13:02:57.031Z,4.70
2018-10-21T13:05:28.025Z,4.73
2018-10-21T13:07:59.123Z,4.30
2018-10-21T13:10:29.821Z,5.00
2018-10-21T13:13:00.177Z,5.30
2018-10-21T13:15:32.863Z,4.70
2018-10-21T13:18:03.838Z,4.60
2018-10-21T13:20:35.686Z,4.60
2018-10-21T13:23:06.315Z,4.70
2018-10-21T13:25:36.925Z,5.07
2018-10-21T13:28:07.266Z,5.73
2018-10-21T13:30:37.783Z,5.50
2018-10-21T13:33:08.424Z,5.60
2018-10-21T13:35:38.841Z,5.87
2018-10-21T13:38:12.577Z,5.57
2018-10-21T13:40:43.131Z,5.67
2018-10-21T13:43:14.301Z,5.83
2018-10-21T13:45:45.699Z,5.43
2018-10-21T13:48:19.915Z,5.20
2018-10-21T13:50:52.375Z,5.43
2018-10-21T13:53:23.753Z,5.20
2018-10-21T13:55:54.001Z,5.70
2018-10-21T13:58:24.450Z,6.03
2018-10-21T14:00:54.780Z,5.85
2018-10-21T14:03:25.231Z,5.90
2018-10-21T14:05:55.514Z,5.87
2018-10-21T14:08:25.884Z,5.97
2018-10-21T14:10:56.420Z,5.50
2018-10-21T14:13:26.828Z,5.30
2018-10-21T14:15:57.338Z,5.20
2018-10-21T14:18:27.642Z,5.83
2018-10-21T14:20:57.930Z,5.57
2018-10-21T14:23:28.247Z,5.73
2018-10-21T14:25:58.621Z,6.23
2018-10-21T14:28:28.986Z,6.17
2018-10-21T14:30:59.441Z,6.30
2018-10-21T14:33:29.730Z,6.63
2018-10-21T14:36:00.031Z,6.63
2018-10-21T14:38:30.472Z,5.37
2018-10-21T14:41:00.884Z,6.33
2018-10-21T14:43:31.255Z,6.30
2018-10-21T14:46:02.354Z,5.73
2018-10-21T14:48:33.620Z,6.17
2018-10-21T14:51:06.204Z,6.30
2018-10-21T14:53:41.203Z,9.73
2018-10-21T14:56:13.231Z,16.37
2018-10-21T14:58:44.925Z,6.60
2018-10-21T15:01:16.255Z,6.40
2018-10-21T15:03:46.919Z,6.17
2018-10-21T15:06:17.793Z,5.57
2018-10-21T15:08:48.097Z,6.73
2018-10-21T15:11:18.415Z,5.60
2018-10-21T15:13:50.236Z,5.67
2018-10-21T15:16:21.586Z,6.10
2018-10-21T15:18:52.208Z,5.60
2018-10-21T15:21:22.541Z,6.00
2018-10-21T15:23:52.960Z,6.93
2018-10-21T15:26:24.663Z,6.27
2018-10-21T15:28:55.073Z,7.50
2018-10-21T15:31:26.362Z,5.93
2018-10-21T15:33:56.715Z,6.00
2018-10-21T15:36:27.938Z,6.20
2018-10-21T15:39:00.475Z,5.90
2018-10-21T15:41:30.782Z,5.93
2018-10-21T15:44:01.447Z,5.50
2018-10-21T15:46:31.804Z,5.57
2018-10-21T15:49:02.240Z,6.33
2018-10-21T15:51:32.670Z,6.13
2018-10-21T15:54:02.971Z,6.37
2018-10-21T15:56:33.302Z,7.00
2018-10-21T15:59:03.666Z,6.60
2018-10-21T16:01:34.021Z,6.60
2018-10-21T16:04:04.443Z,7.67
2018-10-21T16:06:34.998Z,8.70
2018-10-21T16:09:11.214Z,8.20
2018-10-21T16:11:41.606Z,6.10
2018-10-21T16:14:12.350Z,5.57
2018-10-21T16:16:42.542Z,9.60
2018-10-21T16:19:12.907Z,5.90
2018-10-21T16:21:43.283Z,5.40
2018-10-21T16:24:13.756Z,4.70
2018-10-21T16:26:44.086Z,4.77
2018-10-21T16:29:14.454Z,4.53
2018-10-21T16:31:44.745Z,4.87
2018-10-21T16:34:15.693Z,4.87
2018-10-21T16:36:46.010Z,4.67
2018-10-21T16:39:16.781Z,4.53
2018-10-21T16:41:47.105Z,4.70
2018-10-21T16:44:17.833Z,4.90
2018-10-21T16:46:48.373Z,5.50
2018-10-21T16:49:18.695Z,4.40
2018-10-21T16:51:49.355Z,4.90
2018-10-21T16:54:19.685Z,5.97
2018-10-21T16:56:50.811Z,5.50
2018-10-21T16:59:21.614Z,6.90
2018-10-21T17:01:55.075Z,8.80
2018-10-21T17:04:26.269Z,10.40
2018-10-21T17:06:56.606Z,6.63
2018-10-21T17:09:27.909Z,7.80
2018-10-21T17:12:00.214Z,7.47
2018-10-21T17:14:32.280Z,6.93
2018-10-21T17:17:03.472Z,5.87
2018-10-21T17:19:35.031Z,6.30
2018-10-21T17:22:06.461Z,9.70
2018-10-21T17:24:37.016Z,6.60
2018-10-21T17:27:07.788Z,7.63
2018-10-21T17:29:39.445Z,5.90
2018-10-21T17:32:09.897Z,6.20
2018-10-21T17:34:40.227Z,5.80
2018-10-21T17:37:10.987Z,5.90
2018-10-21T17:39:41.209Z,4.80
2018-10-21T17:42:11.521Z,7.90
2018-10-21T17:44:41.873Z,6.73
2018-10-21T17:47:13.232Z,7.90
2018-10-21T17:49:43.591Z,7.27
2018-10-21T17:52:14.150Z,9.53
2018-10-21T17:54:44.530Z,10.70
2018-10-21T17:57:15.846Z,10.10
2018-10-21T17:59:47.087Z,10.93
2018-10-21T18:02:17.578Z,11.07
2018-10-21T18:04:48.605Z,11.73
2018-10-21T18:07:19.841Z,9.90
2018-10-21T18:09:51.254Z,11.10
2018-10-21T18:12:22.006Z,7.40
2018-10-21T18:14:52.468Z,8.27
2018-10-21T18:17:22.798Z,6.78
2018-10-21T18:19:53.144Z,5.60
2018-10-21T18:22:24.334Z,6.62
2018-10-21T18:24:55.234Z,8.10
2018-10-21T18:27:26.432Z,8.50
2018-10-21T18:29:57.076Z,8.48
2018-10-21T18:32:28.085Z,7.35
2018-10-21T18:34:58.689Z,7.80
2018-10-21T18:37:29.897Z,8.53
2018-10-21T18:40:00.370Z,6.70
2018-10-21T18:42:31.494Z,7.12
2018-10-21T18:45:03.565Z,7.62
2018-10-21T18:47:34.512Z,11.22
2018-10-21T18:50:06.882Z,9.40
2018-10-21T18:52:37.727Z,9.50
2018-10-21T18:55:09.932Z,9.35
2018-10-21T18:57:40.384Z,10.23
2018-10-21T19:00:15.426Z,17.50
2018-10-21T19:02:47.536Z,14.38
2018-10-21T19:05:19.066Z,9.75
2018-10-21T19:07:49.524Z,7.92
2018-10-21T19:10:20.115Z,7.58
2018-10-21T19:13:00.047Z,9.80
2018-10-21T19:15:21.262Z,14.93
2018-10-21T19:17:51.758Z,17.32
2018-10-21T19:20:22.231Z,15.23
2018-10-21T19:22:52.922Z,17.05
2018-10-21T19:25:23.352Z,11.33
2018-10-21T19:27:54.342Z,12.25
2018-10-21T19:30:24.959Z,9.43
2018-10-21T19:32:55.790Z,7.30
2018-10-21T19:35:28.803Z,6.95
2018-10-21T19:37:59.470Z,6.97
2018-10-21T19:40:29.845Z,7.45
2018-10-21T19:43:00.986Z,7.05
2018-10-21T19:45:31.391Z,6.58
2018-10-21T19:48:01.874Z,6.75
2018-10-21T19:50:32.537Z,6.72
2018-10-21T19:53:03.134Z,7.50
2018-10-21T19:55:34.042Z,10.70
2018-10-21T19:58:05.816Z,9.30
2018-10-21T20:00:36.468Z,7.55
2018-10-21T20:03:06.826Z,6.95
2018-10-21T20:05:37.201Z,8.15
2018-10-21T20:08:08.357Z,8.63
2018-10-21T20:10:38.745Z,10.25
2018-10-21T20:13:09.089Z,10.53
2018-10-21T20:15:39.468Z,10.25
2018-10-21T20:18:09.855Z,12.10
2018-10-21T20:20:41.474Z,13.40
2018-10-21T20:23:11.913Z,15.20
2018-10-21T20:25:42.405Z,15.30
2018-10-21T20:28:12.807Z,16.95
2018-10-21T20:30:43.214Z,11.88
2018-10-21T20:33:13.568Z,8.00
2018-10-21T20:35:44.024Z,8.18
2018-10-21T20:38:14.721Z,8.38
2018-10-21T20:40:45.440Z,8.65
2018-10-21T20:43:16.704Z,8.58
2018-10-21T20:45:47.366Z,8.95
2018-10-21T20:48:17.759Z,8.98
2018-10-21T20:50:48.528Z,9.65
2018-10-21T20:53:19.668Z,12.68
2018-10-21T20:55:50.205Z,22.60
2018-10-21T20:58:20.873Z,17.73
2018-10-21T21:00:51.666Z,14.90
2018-10-21T21:03:22.294Z,10.08
2018-10-21T21:05:53.224Z,8.88
2018-10-21T21:08:25.062Z,8.55
2018-10-21T21:10:56.192Z,7.67
2018-10-21T21:13:27.057Z,8.55
2018-10-21T21:15:58.481Z,8.20
2018-10-21T21:18:29.089Z,7.22
2018-10-21T21:20:59.496Z,7.87
2018-10-21T21:23:29.803Z,7.60
2018-10-21T21:26:01.084Z,7.50
2018-10-21T21:28:31.467Z,8.13
2018-10-21T21:31:02.219Z,7.30
2018-10-21T21:33:32.494Z,8.20
2018-10-21T21:36:04.154Z,8.05
2018-10-21T21:38:34.519Z,9.08
2018-10-21T21:41:06.379Z,8.78
2018-10-21T21:43:36.742Z,8.33
2018-10-21T21:46:07.045Z,8.30
2018-10-21T21:48:37.884Z,9.33
2018-10-21T21:51:08.921Z,9.40
2018-10-21T21:53:39.422Z,8.68
2018-10-21T21:56:10.011Z,8.58
2018-10-21T21:58:41.611Z,8.33
2018-10-21T22:01:11.898Z,8.73
2018-10-21T22:03:42.126Z,8.58
2018-10-21T22:06:13.239Z,7.62
2018-10-21T22:08:43.766Z,8.80
2018-10-21T22:11:14.566Z,8.38
2018-10-21T22:13:45.754Z,9.03
2018-10-21T22:16:16.823Z,8.63
2018-10-21T22:18:47.027Z,8.15
2018-10-21T22:21:17.335Z,9.10
2018-10-21T22:23:47.577Z,9.30
2018-10-21T22:26:18.843Z,10.28
2018-10-21T22:28:49.532Z,9.85
2018-10-21T22:31:25.027Z,10.25
2018-10-21T22:33:55.329Z,12.60
2018-10-21T22:36:25.611Z,11.35
2018-10-21T22:38:55.879Z,11.70
2018-10-21T22:41:26.176Z,10.03
2018-10-21T22:43:56.429Z,14.03
2018-10-21T22:46:26.721Z,14.78
2018-10-21T22:48:56.994Z,14.53
2018-10-21T22:51:27.322Z,14.75
2018-10-21T22:53:57.611Z,14.25
2018-10-21T22:56:27.886Z,12.55
2018-10-21T22:58:58.152Z,11.95
2018-10-21T23:01:28.445Z,10.08
2018-10-21T23:03:58.796Z,9.90
2018-10-21T23:06:29.003Z,9.80
2018-10-21T23:08:59.248Z,10.50
2018-10-21T23:11:29.536Z,10.60
2018-10-21T23:13:59.799Z,9.65
2018-10-21T23:16:30.063Z,10.43
2018-10-21T23:19:17.102Z,11.05
2018-10-21T23:21:47.390Z,9.75
2018-10-21T23:24:17.752Z,11.25
2018-10-21T23:26:47.972Z,10.43
2018-10-21T23:29:18.230Z,10.55
2018-10-21T23:31:48.506Z,10.60
2018-10-21T23:34:18.791Z,11.15
2018-10-21T23:36:49.066Z,10.38
2018-10-21T23:39:19.311Z,10.68
2018-10-21T23:41:49.610Z,11.45
2018-10-21T23:44:19.872Z,11.00
2018-10-21T23:46:50.620Z,10.80
2018-10-21T23:49:20.854Z,9.75
2018-10-21T23:51:51.163Z,10.30
2018-10-21T23:54:21.417Z,9.80
2018-10-21T23:56:51.686Z,10.05
2018-10-21T23:59:21.984Z,9.25
